Time;durP1;ratioP1;P1;durP2;ratioP2;P2;SDS_P1;SDS_P2;PMS_P1;PMS_P2;Temp;Humidity;BMP_temperature;BMP_pressure;BME280_temperature;BME280_humidity;BME280_pressure;Samples;Min_cycle;Max_cycle;Signal;HPM_P1;HPM_P2
2023/04/08 00:00:57;;;;;;;22.23;16.73;;;;;;;-146.25;100.00;52122.88;2072562;28;31969;-70
2023/04/08 00:01:58;;;;;;;23.48;16.80;;;;;;;-146.25;100.00;52167.47;2072401;28;35489;-69
2023/04/08 00:03:01;;;;;;;23.85;16.83;;;;;;;-146.25;100.00;52177.59;2072460;28;34174;-70
2023/04/08 00:04:03;;;;;;;21.90;16.63;;;;;;;-146.25;100.00;52137.06;2072394;28;34625;-70
2023/04/08 00:05:07;;;;;;;24.45;17.27;;;;;;;-146.25;100.00;52126.91;2072570;28;33133;-70
2023/04/08 00:06:10;;;;;;;25.48;17.05;;;;;;;-146.25;100.00;52153.28;2072279;28;34547;-70
2023/04/08 00:07:11;;;;;;;25.02;17.73;;;;;;;-146.25;100.00;52141.13;2072197;28;38147;-70
2023/04/08 00:08:13;;;;;;;24.95;17.33;;;;;;;-146.25;100.00;52124.91;2072839;28;20883;-70
2023/04/08 00:09:15;;;;;;;25.67;16.98;;;;;;;-146.25;100.00;52153.28;2072187;28;38095;-70
2023/04/08 00:10:17;;;;;;;22.33;17.15;;;;;;;-146.25;100.00;52157.34;2072617;28;33356;-70
2023/04/08 00:11:19;;;;;;;24.77;17.38;;;;;;;-146.25;100.00;52143.13;2072443;28;35375;-70
2023/04/08 00:12:21;;;;;;;23.77;16.52;;;;;;;-146.25;100.00;52145.16;2075650;28;39670;-70
2023/04/08 00:13:25;;;;;;;23.40;16.73;;;;;;;-146.25;100.00;52143.13;2081300;28;20030;-70
2023/04/08 00:14:27;;;;;;;23.67;16.83;;;;;;;-146.25;100.00;52090.44;2080314;28;37316;-70
2023/04/08 00:15:28;;;;;;;24.08;16.65;;;;;;;-146.25;100.00;52133.00;2072027;28;33712;-70
2023/04/08 00:16:30;;;;;;;24.77;17.77;;;;;;;-146.25;100.00;52139.09;2072689;28;20880;-70
2023/04/08 00:17:32;;;;;;;21.13;16.73;;;;;;;-146.25;100.00;52122.88;2081401;28;20035;-70
2023/04/08 00:18:34;;;;;;;23.45;16.60;;;;;;;-146.25;100.00;52157.34;2080678;28;34713;-70
2023/04/08 00:19:35;;;;;;;26.20;17.30;;;;;;;-146.25;100.00;52137.06;2080849;28;34502;-70
2023/04/08 00:20:37;;;;;;;22.38;16.63;;;;;;;-146.25;100.00;52124.91;2081241;28;20165;-70
2023/04/08 00:21:39;;;;;;;24.92;16.45;;;;;;;-146.25;100.00;52181.66;2080521;28;33995;-70
2023/04/08 00:22:41;;;;;;;23.58;16.63;;;;;;;-146.25;100.00;52122.88;2080061;28;33211;-70
2023/04/08 00:23:43;;;;;;;23.10;17.45;;;;;;;-146.25;100.00;52157.34;2080950;28;20038;-71
2023/04/08 00:24:44;;;;;;;22.35;16.55;;;;;;;-146.25;100.00;52143.13;2080502;28;36662;-70
2023/04/08 00:25:46;;;;;;;21.60;16.48;;;;;;;-146.25;100.00;52126.91;2080748;28;34261;-70
2023/04/08 00:26:48;;;;;;;21.95;16.40;;;;;;;-146.25;100.00;52133.00;2081210;28;20045;-69
2023/04/08 00:27:50;;;;;;;22.55;16.48;;;;;;;-146.25;100.00;52130.97;2080855;28;31993;-70
2023/04/08 00:28:51;;;;;;;24.08;16.48;;;;;;;-146.25;100.00;52124.91;2072304;28;21064;-71
2023/04/08 00:29:53;;;;;;;22.58;16.70;;;;;;;-146.25;100.00;52124.91;2072341;28;25289;-70
2023/04/08 00:30:55;;;;;;;24.90;16.73;;;;;;;-146.25;100.00;52124.91;2080835;28;31696;-70
2023/04/08 00:31:57;;;;;;;25.05;17.08;;;;;;;-146.25;100.00;52153.28;2072505;28;20122;-70
2023/04/08 00:32:58;;;;;;;22.77;17.00;;;;;;;-146.25;100.00;52183.69;2064046;28;21140;-71
2023/04/08 00:34:02;;;;;;;22.20;17.00;;;;;;;-146.25;100.00;52124.91;2072556;28;26170;-70
2023/04/08 00:35:04;;;;;;;21.35;17.08;;;;;;;-146.25;100.00;52137.06;2071332;28;32895;-70
2023/04/08 00:36:08;;;;;;;22.45;16.90;;;;;;;-146.25;100.00;52185.72;2071981;28;37753;-70
2023/04/08 00:37:11;;;;;;;22.90;16.92;;;;;;;-146.25;100.00;52141.13;2073010;28;20039;-70
2023/04/08 00:38:12;;;;;;;22.92;16.75;;;;;;;-146.25;100.00;52116.78;2071887;28;32174;-70
2023/04/08 00:39:14;;;;;;;22.08;16.38;;;;;;;-146.25;100.00;52165.44;2071546;28;24624;-70
2023/04/08 00:40:16;;;;;;;25.80;17.35;;;;;;;-146.25;100.00;52153.28;2064443;28;20034;-70
2023/04/08 00:41:19;;;;;;;24.52;16.45;;;;;;;-146.25;100.00;52098.53;2064219;28;21003;-70
2023/04/08 00:42:21;;;;;;;22.77;16.58;;;;;;;-146.25;100.00;52153.28;2073423;28;20053;-70
2023/04/08 00:43:23;;;;;;;25.70;17.13;;;;;;;-146.25;100.00;52139.09;2071631;28;20049;-70
2023/04/08 00:44:25;;;;;;;23.85;17.20;;;;;;;-146.25;100.00;52169.50;2063621;28;20928;-71
2023/04/08 00:45:26;;;;;;;22.60;16.65;;;;;;;-146.25;100.00;52153.28;2063497;28;25930;-70
2023/04/08 00:46:34;;;;;;;22.95;16.63;;;;;;;-146.25;100.00;52128.94;2063854;28;30281;-70
2023/04/08 00:47:38;;;;;;;25.15;16.38;;;;;;;-146.25;100.00;52124.91;2055865;28;27488;-70
2023/04/08 00:48:40;;;;;;;20.48;16.00;;;;;;;-146.25;100.00;52153.28;2056555;28;29607;-70
2023/04/08 00:49:43;;;;;;;26.38;17.63;;;;;;;-146.25;100.00;52149.22;2064606;28;20211;-70
2023/04/08 00:50:46;;;;;;;26.10;18.42;;;;;;;-146.25;100.00;52126.91;2064282;28;30395;-70
2023/04/08 00:51:47;;;;;;;24.20;16.70;;;;;;;-146.25;100.00;52189.78;2064005;28;28035;-70
2023/04/08 00:52:51;;;;;;;22.88;17.30;;;;;;;-146.25;100.00;52130.97;2064576;28;20031;-70
2023/04/08 00:53:56;;;;;;;23.05;16.33;;;;;;;-146.25;100.00;52141.13;2055548;28;26342;-70
2023/04/08 00:54:58;;;;;;;22.95;17.00;;;;;;;-146.25;100.00;52130.97;2057239;28;20043;-70
2023/04/08 00:56:02;;;;;;;22.02;17.08;;;;;;;-146.25;100.00;52155.31;2055462;28;33846;-70
2023/04/08 00:57:07;;;;;;;24.55;16.95;;;;;;;-146.25;100.00;52161.38;2055787;28;29912;-70
2023/04/08 00:58:10;;;;;;;23.98;16.88;;;;;;;-146.25;100.00;52143.13;2055324;28;33430;-70
2023/04/08 00:59:14;;;;;;;26.00;17.45;;;;;;;-146.25;100.00;52151.25;2056470;28;33783;-70
2023/04/08 01:00:16;;;;;;;22.08;16.45;;;;;;;-146.25;100.00;52135.03;2063487;28;32459;-69
2023/04/08 01:01:30;;;;;;;23.42;17.52;;;;;;;-146.25;100.00;52100.56;2055766;28;25304;-70
2023/04/08 01:02:49;;;;;;;24.73;18.13;;;;;;;-146.25;100.00;52114.75;2041179;28;33204;-70
2023/04/08 01:04:43;;;;;;;23.00;16.88;;;;;;;-146.25;100.00;52159.34;2045860;28;20255;-70
2023/04/08 01:06:14;;;;;;;25.30;16.98;;;;;;;-146.25;100.00;52159.34;2025078;29;21010;-70
2023/04/08 01:07:24;;;;;;;23.05;16.60;;;;;;;-146.25;99.60;52135.03;2059368;28;32657;-70
2023/04/08 01:08:30;;;;;;;25.35;18.00;;;;;;;-146.25;99.61;52155.31;2060707;28;27823;-70
2023/04/08 01:09:36;;;;;;;27.88;17.95;;;;;;;-146.25;99.55;52122.88;2055500;28;24323;-70
2023/04/08 01:10:41;;;;;;;25.95;17.45;;;;;;;-146.25;100.00;52114.75;2056862;28;35445;-70
2023/04/08 01:11:49;;;;;;;24.83;17.58;;;;;;;-146.25;99.49;52128.94;2055551;28;26027;-70
2023/04/08 01:12:58;;;;;;;22.17;16.45;;;;;;;-146.25;100.00;52151.25;2055436;28;35059;-70
2023/04/08 01:14:06;;;;;;;23.60;17.05;;;;;;;-146.25;99.73;52155.31;2057633;28;20043;-70
2023/04/08 01:15:10;;;;;;;24.63;17.13;;;;;;;-146.25;99.73;52149.22;2057145;28;20036;-70
2023/04/08 01:16:16;;;;;;;28.00;17.95;;;;;;;-146.25;99.95;52161.38;2055509;28;20043;-70
2023/04/08 01:17:21;;;;;;;24.52;16.95;;;;;;;-146.25;99.87;52137.06;2056351;28;28434;-70
2023/04/08 01:18:23;;;;;;;25.70;17.95;;;;;;;-146.25;100.00;52120.84;2055183;28;29958;-70
2023/04/08 01:19:39;;;;;;;25.20;17.83;;;;;;;-146.25;100.00;52161.38;2047782;28;20048;-69
2023/04/08 01:20:43;;;;;;;25.88;17.27;;;;;;;-146.25;99.57;52112.72;2049399;28;30927;-70
2023/04/08 01:21:46;;;;;;;25.25;17.50;;;;;;;-146.25;99.52;52128.94;2057472;28;20118;-70
2023/04/08 01:23:09;;;;;;;25.92;18.42;;;;;;;-146.25;100.00;52141.13;2054716;28;22487;-70
2023/04/08 01:24:27;;;;;;;25.75;17.17;;;;;;;-146.25;99.67;52157.34;2058886;28;32387;-70
2023/04/08 01:25:33;;;;;;;25.98;17.88;;;;;;;-146.25;99.73;52157.34;2056787;28;20039;-70
2023/04/08 01:26:36;;;;;;;23.70;17.13;;;;;;;-146.25;100.00;52128.94;2058107;28;20028;-70
2023/04/08 01:27:39;;;;;;;25.67;17.88;;;;;;;-146.25;100.00;52173.56;2064143;28;29795;-70
2023/04/08 01:28:42;;;;;;;23.92;17.63;;;;;;;-146.25;100.00;52175.56;2055302;28;33287;-70
2023/04/08 01:29:47;;;;;;;24.15;17.40;;;;;;;-146.25;100.00;52133.00;2055562;28;30260;-71
2023/04/08 01:30:52;;;;;;;24.85;17.58;;;;;;;-146.25;100.00;52197.88;2055976;28;20044;-70
2023/04/08 01:31:56;;;;;;;24.30;16.80;;;;;;;-146.25;99.59;52153.28;2047587;28;28676;-70
2023/04/08 01:33:00;;;;;;;23.98;17.05;;;;;;;-146.25;100.00;52145.16;2047316;28;29918;-71
2023/04/08 01:34:05;;;;;;;26.00;17.65;;;;;;;-146.25;100.00;52169.50;2055711;28;33225;-68
2023/04/08 01:35:08;;;;;;;25.35;17.67;;;;;;;-146.25;99.82;52151.25;2064755;28;20054;-70
2023/04/08 01:36:11;;;;;;;27.15;17.95;;;;;;;-146.25;99.54;52139.09;2055830;28;20043;-69
2023/04/08 01:37:14;;;;;;;26.42;17.75;;;;;;;-146.25;99.77;52130.97;2062575;28;37088;-70
2023/04/08 01:38:19;;;;;;;25.17;17.13;;;;;;;-146.25;99.88;52137.06;2055203;28;32308;-70
2023/04/08 01:39:24;;;;;;;24.58;18.08;;;;;;;-146.25;100.00;52128.94;2057252;28;20039;-70
2023/04/08 01:40:26;;;;;;;26.60;18.38;;;;;;;-146.25;100.00;52157.34;2063753;28;26057;-70
2023/04/08 01:41:35;;;;;;;26.15;17.27;;;;;;;-146.25;99.56;52167.47;2047640;28;20047;-70
2023/04/08 01:42:37;;;;;;;27.42;18.83;;;;;;;-146.25;99.92;52153.28;2056551;28;34293;-70
2023/04/08 01:43:42;;;;;;;26.85;17.48;;;;;;;-146.25;99.96;52124.91;2055414;28;22736;-70
2023/04/08 01:44:45;;;;;;;24.92;16.77;;;;;;;-146.25;99.71;52155.31;2064442;28;23205;-70
2023/04/08 01:45:53;;;;;;;28.80;18.65;;;;;;;-146.25;99.83;52203.97;2052303;28;20626;-70
2023/04/08 01:46:55;;;;;;;26.70;17.15;;;;;;;-146.25;100.00;52179.63;2047571;28;20043;-70
2023/04/08 01:48:01;;;;;;;26.25;17.42;;;;;;;-146.25;100.00;52159.34;2041034;28;24031;-70
2023/04/08 01:49:06;;;;;;;23.63;16.65;;;;;;;-146.25;100.00;52141.13;2056039;28;20047;-69
2023/04/08 01:50:10;;;;;;;26.30;17.70;;;;;;;-146.25;100.00;52149.22;2062870;28;20120;-70
2023/04/08 01:51:15;;;;;;;24.48;17.13;;;;;;;-146.25;100.00;52126.91;2055651;28;20036;-69
2023/04/08 01:52:20;;;;;;;25.17;17.67;;;;;;;-146.25;99.67;52155.31;2056245;28;25759;-70
2023/04/08 01:53:24;;;;;;;25.92;17.75;;;;;;;-146.25;99.96;52151.25;2063953;28;29741;-69
2023/04/08 01:54:27;;;;;;;23.27;16.73;;;;;;;-146.25;99.97;52151.25;2055609;28;20143;-70
2023/04/08 01:55:32;;;;;;;23.50;17.00;;;;;;;-146.25;99.59;52187.75;2048593;28;20051;-70
2023/04/08 01:56:40;;;;;;;26.20;17.33;;;;;;;-146.25;100.00;52195.84;2047587;28;31955;-70
2023/04/08 01:57:48;;;;;;;24.63;17.15;;;;;;;-146.25;100.00;52141.13;2049028;28;20055;-70
2023/04/08 01:58:57;;;;;;;24.92;17.00;;;;;;;-146.25;99.88;52135.03;2048607;28;20845;-70
2023/04/08 02:00:04;;;;;;;26.45;17.27;;;;;;;-146.25;100.00;52167.47;2056056;28;20090;-71
2023/04/08 02:01:23;;;;;;;24.02;16.73;;;;;;;-146.25;99.75;52151.25;2055677;28;20125;-70
2023/04/08 02:02:26;;;;;;;27.35;17.17;;;;;;;-146.25;99.92;52153.28;2050754;28;22290;-70
2023/04/08 02:03:29;;;;;;;26.88;17.35;;;;;;;-146.25;100.00;52173.56;2056585;28;23937;-70
2023/04/08 02:04:33;;;;;;;26.02;17.55;;;;;;;-146.25;99.44;52151.25;2055322;28;20050;-70
2023/04/08 02:05:35;;;;;;;24.25;17.30;;;;;;;-146.25;99.54;52173.56;2056676;28;20047;-70
2023/04/08 02:06:37;;;;;;;22.70;16.58;;;;;;;-146.25;100.00;52169.50;2063864;28;33010;-70
2023/04/08 02:07:39;;;;;;;24.23;17.17;;;;;;;-146.25;99.50;52116.78;2055216;28;27958;-70
2023/04/08 02:08:41;;;;;;;24.20;16.90;;;;;;;-146.25;99.33;52165.44;2047442;28;24104;-70
2023/04/08 02:09:45;;;;;;;22.10;16.60;;;;;;;-146.25;99.70;52169.50;2055670;28;20925;-70
2023/04/08 02:10:47;;;;;;;23.65;16.50;;;;;;;-146.25;99.16;52183.69;2056038;28;23865;-69
2023/04/08 02:11:48;;;;;;;24.75;17.40;;;;;;;-146.25;99.60;52133.00;2063376;28;20824;-70
2023/04/08 02:12:50;;;;;;;23.50;16.90;;;;;;;-146.25;99.52;52147.19;2063535;28;20042;-70
2023/04/08 02:13:52;;;;;;;23.77;17.10;;;;;;;-146.25;99.11;52135.03;2063884;28;20840;-70
2023/04/08 02:14:56;;;;;;;24.55;17.27;;;;;;;-146.25;99.24;52171.53;2063102;28;27775;-70
2023/04/08 02:16:37;;;;;;;22.48;16.00;;;;;;;-146.25;99.27;52173.56;2064626;28;35130;-70
2023/04/08 02:17:51;;;;;;;24.60;16.42;;;;;;;-146.25;99.06;52169.50;2063572;28;20184;-70
2023/04/08 02:19:13;;;;;;;22.50;15.82;;;;;;;-146.25;99.62;52120.84;2060438;28;20181;-69
2023/04/08 02:20:40;;;;;;;22.90;16.13;;;;;;;-146.25;99.75;52157.34;2051638;28;20043;-70
2023/04/08 02:21:49;;;;;;;22.38;15.07;;;;;;;-146.25;99.49;52151.25;2062839;28;36027;-70
2023/04/08 02:23:03;;;;;;;23.73;16.27;;;;;;;-146.25;99.17;52153.28;2071914;28;31271;-70
2023/04/08 02:24:08;;;;;;;22.25;16.02;;;;;;;-146.25;99.18;52104.63;2071591;28;32563;-70
2023/04/08 02:25:15;;;;;;;22.90;16.27;;;;;;;-146.25;98.94;52167.47;2063037;28;33492;-70
2023/04/08 02:26:19;;;;;;;22.10;15.40;;;;;;;-146.25;99.24;52130.97;2064932;28;30921;-70
2023/04/08 02:27:23;;;;;;;24.77;15.10;;;;;;;-146.25;98.94;52153.28;2063336;28;20127;-70
2023/04/08 02:28:27;;;;;;;24.58;16.48;;;;;;;-146.25;98.63;52133.00;2056000;28;29360;-70
2023/04/08 02:29:32;;;;;;;21.65;15.35;;;;;;;-146.25;99.04;52193.81;2062732;28;33170;-70
2023/04/08 02:30:36;;;;;;;26.17;15.63;;;;;;;-146.25;98.99;52183.69;2063025;28;26241;-70
2023/04/08 02:31:43;;;;;;;23.67;16.13;;;;;;;-146.25;99.15;52141.13;2054874;28;32077;-69
2023/04/08 02:32:46;;;;;;;21.70;15.43;;;;;;;-146.25;99.24;52157.34;2048367;28;20043;-70
2023/04/08 02:33:50;;;;;;;21.73;16.20;;;;;;;-146.25;98.94;52169.50;2056249;28;25881;-70
2023/04/08 02:34:53;;;;;;;22.63;15.68;;;;;;;-146.25;98.59;52175.56;2063067;28;35501;-70
2023/04/08 02:35:57;;;;;;;22.75;16.02;;;;;;;-146.25;98.92;52135.03;2064551;28;20105;-70
2023/04/08 02:37:01;;;;;;;24.52;16.15;;;;;;;-146.25;99.48;52151.25;2063621;28;20079;-70
2023/04/08 02:38:02;;;;;;;21.10;16.00;;;;;;;-146.25;99.40;52169.50;2055262;28;26350;-70
2023/04/08 02:39:04;;;;;;;23.00;15.82;;;;;;;-146.25;99.05;52159.34;2054959;28;28139;-70
2023/04/08 02:40:27;;;;;;;23.38;16.63;;;;;;;-146.25;98.73;52155.31;2063349;28;20035;-70
2023/04/08 02:41:30;;;;;;;24.77;16.05;;;;;;;-146.25;98.50;52155.31;2063434;28;20039;-70
2023/04/08 02:42:32;;;;;;;23.45;15.88;;;;;;;-146.25;98.68;52149.22;2063107;28;29601;-70
2023/04/08 02:43:34;;;;;;;22.13;16.05;;;;;;;-146.25;98.75;52187.75;2071814;28;36244;-70
2023/04/08 02:44:39;;;;;;;23.00;15.27;;;;;;;-146.25;98.83;52135.03;2071093;28;20039;-70
2023/04/08 02:45:43;;;;;;;25.42;16.30;;;;;;;-146.25;98.58;52173.56;2071830;28;20089;-71
2023/04/08 02:46:44;;;;;;;23.13;17.02;;;;;;;-146.25;98.25;52112.72;2062427;28;28995;-71
2023/04/08 02:47:46;;;;;;;22.67;15.93;;;;;;;-146.25;98.60;52157.34;2063108;28;30933;-70
2023/04/08 02:48:48;;;;;;;24.48;15.40;;;;;;;-146.25;98.96;52193.81;2062620;28;30710;-70
2023/04/08 02:49:52;;;;;;;22.83;15.90;;;;;;;-146.25;98.76;52139.09;2064656;28;20703;-70
2023/04/08 02:50:56;;;;;;;24.17;15.65;;;;;;;-146.25;98.77;52120.84;2062472;28;36479;-70
2023/04/08 02:51:59;;;;;;;26.45;15.68;;;;;;;-146.25;98.93;52157.34;2055553;28;20043;-70
2023/04/08 02:53:01;;;;;;;21.83;15.55;;;;;;;-146.25;98.95;52155.31;2054633;28;32035;-70
2023/04/08 02:54:04;;;;;;;24.40;16.17;;;;;;;-146.25;98.84;52151.25;2054824;28;20043;-70
2023/04/08 02:55:08;;;;;;;23.63;16.85;;;;;;;-146.25;98.80;52157.34;2055061;28;20039;-70
2023/04/08 02:56:10;;;;;;;24.10;15.98;;;;;;;-146.25;98.83;52157.34;2062471;28;33501;-71
2023/04/08 02:57:12;;;;;;;20.88;15.13;;;;;;;-146.25;98.30;52171.53;2063376;28;35888;-70
2023/04/08 02:58:14;;;;;;;23.40;15.95;;;;;;;-146.25;98.19;52126.91;2063959;28;33901;-70
2023/04/08 02:59:16;;;;;;;21.33;16.08;;;;;;;-146.25;97.80;52161.38;2063346;28;34916;-70
2023/04/08 03:00:18;;;;;;;22.38;15.82;;;;;;;-146.25;97.99;52171.53;2063271;28;38709;-70
2023/04/08 03:01:20;;;;;;;25.15;16.20;;;;;;;-146.25;97.89;52171.53;2063699;28;20039;-71
2023/04/08 03:02:21;;;;;;;24.38;16.27;;;;;;;-146.25;98.02;52139.09;2063624;28;35642;-70
2023/04/08 03:03:28;;;;;;;23.33;15.73;;;;;;;-146.25;98.46;52169.50;2063017;28;33562;-70
2023/04/08 03:04:29;;;;;;;20.73;16.08;;;;;;;-146.25;97.77;52165.44;2063455;28;37012;-70
2023/04/08 03:05:32;;;;;;;24.25;15.90;;;;;;;-146.25;97.89;52149.22;2063456;28;40167;-70
2023/04/08 03:06:33;;;;;;;21.13;15.75;;;;;;;-146.25;98.04;52120.84;2064354;28;20125;-70
2023/04/08 03:07:35;;;;;;;21.48;15.68;;;;;;;-146.25;98.33;52171.53;2063089;28;37831;-70
2023/04/08 03:08:37;;;;;;;23.27;15.45;;;;;;;-146.25;98.01;52137.06;2063630;28;30881;-70
2023/04/08 03:09:39;;;;;;;20.73;15.05;;;;;;;-146.25;98.11;52173.56;2063768;28;20047;-70
2023/04/08 03:10:41;;;;;;;21.20;15.95;;;;;;;-146.25;97.84;52183.69;2063737;28;33619;-70
2023/04/08 03:11:43;;;;;;;22.85;15.45;;;;;;;-146.25;98.13;52197.88;2063901;28;34292;-70
2023/04/08 03:12:45;;;;;;;21.35;15.00;;;;;;;-146.25;97.89;52114.75;2065230;28;20117;-70
2023/04/08 03:13:47;;;;;;;22.58;15.95;;;;;;;-146.25;98.08;52169.50;2064671;28;35484;-71
2023/04/08 03:14:49;;;;;;;21.17;15.88;;;;;;;-146.25;98.30;52141.13;2064778;28;35271;-70
2023/04/08 03:15:51;;;;;;;20.33;15.23;;;;;;;-146.25;98.23;52151.25;2065314;28;34454;-70
2023/04/08 03:16:53;;;;;;;19.85;15.10;;;;;;;-146.25;97.72;52157.34;2072643;28;35741;-70
2023/04/08 03:17:55;;;;;;;20.30;14.73;;;;;;;-146.25;98.03;52128.94;2073325;28;20746;-70
2023/04/08 03:18:59;;;;;;;21.67;15.32;;;;;;;-146.25;97.86;52163.41;2073018;28;35218;-70
2023/04/08 03:20:03;;;;;;;21.50;15.05;;;;;;;-146.25;98.25;52169.50;2073193;28;30633;-70
2023/04/08 03:21:05;;;;;;;19.30;14.80;;;;;;;-146.25;97.92;52137.06;2073588;28;20045;-70
2023/04/08 03:22:08;;;;;;;20.60;14.77;;;;;;;-146.25;97.62;52177.59;2072607;28;34405;-69
2023/04/08 03:23:10;;;;;;;21.58;15.55;;;;;;;-146.25;98.08;52137.06;2072970;28;34883;-70
2023/04/08 03:24:12;;;;;;;20.35;14.82;;;;;;;-146.25;98.22;52155.31;2073474;28;20047;-70
2023/04/08 03:25:16;;;;;;;20.92;14.95;;;;;;;-146.25;98.16;52157.34;2072992;28;34052;-70
2023/04/08 03:26:18;;;;;;;22.08;15.20;;;;;;;-146.25;98.32;52165.44;2063854;28;35931;-70
2023/04/08 03:27:19;;;;;;;23.75;15.65;;;;;;;-146.25;98.22;52169.50;2064763;28;31124;-70
2023/04/08 03:28:21;;;;;;;20.80;15.05;;;;;;;-146.25;97.64;52181.66;2072642;28;36251;-71
2023/04/08 03:29:23;;;;;;;24.67;16.15;;;;;;;-146.25;97.45;52173.56;2073058;28;33634;-70
2023/04/08 03:30:25;;;;;;;22.15;15.70;;;;;;;-146.25;97.99;52177.59;2072743;28;31762;-71
2023/04/08 03:31:26;;;;;;;19.77;14.27;;;;;;;-146.25;97.83;52169.50;2072700;28;37563;-71
2023/04/08 03:32:28;;;;;;;21.88;15.60;;;;;;;-146.25;97.53;52141.13;2072438;28;33003;-70
2023/04/08 03:33:30;;;;;;;23.55;15.75;;;;;;;-146.25;97.73;52175.56;2072663;28;32474;-71
2023/04/08 03:34:36;;;;;;;21.48;15.05;;;;;;;-146.25;97.31;52161.38;2072554;28;35879;-70
2023/04/08 03:35:37;;;;;;;19.67;14.07;;;;;;;-146.25;97.57;52171.53;2072894;28;33722;-71
2023/04/08 03:36:39;;;;;;;19.85;14.40;;;;;;;-146.25;97.61;52149.22;2072492;28;34260;-70
2023/04/08 03:37:41;;;;;;;19.70;14.73;;;;;;;-146.25;97.78;52151.25;2073568;28;20047;-70
2023/04/08 03:38:45;;;;;;;21.60;15.45;;;;;;;-146.25;97.39;52167.47;2073030;28;20912;-70
2023/04/08 03:39:47;;;;;;;22.88;15.75;;;;;;;-146.25;98.02;52185.72;2073062;28;33695;-71
2023/04/08 03:40:48;;;;;;;21.38;14.70;;;;;;;-146.25;97.50;52165.44;2072529;28;33901;-70
2023/04/08 03:41:55;;;;;;;20.45;14.18;;;;;;;-146.25;97.52;52203.97;2072425;28;34503;-70
2023/04/08 03:42:57;;;;;;;23.30;15.05;;;;;;;-146.25;97.84;52153.28;2072943;28;32045;-70
2023/04/08 03:43:59;;;;;;;20.77;14.82;;;;;;;-146.25;97.55;52155.31;2073228;28;20030;-70
2023/04/08 03:45:01;;;;;;;20.20;14.38;;;;;;;-146.25;98.12;52181.66;2072400;28;36037;-70
2023/04/08 03:46:03;;;;;;;21.65;14.85;;;;;;;-146.25;97.93;52106.66;2072827;28;32992;-70
2023/04/08 03:47:07;;;;;;;21.00;15.07;;;;;;;-146.25;97.86;52153.28;2073247;28;20038;-71
2023/04/08 03:48:08;;;;;;;22.75;15.32;;;;;;;-146.25;97.32;52137.06;2072542;28;35693;-71
2023/04/08 03:49:11;;;;;;;24.23;15.85;;;;;;;-146.25;97.73;52157.34;2072625;28;34674;-71
2023/04/08 03:50:13;;;;;;;23.50;14.90;;;;;;;-146.25;97.65;52141.13;2073288;28;20941;-70
2023/04/08 03:51:14;;;;;;;21.77;14.98;;;;;;;-146.25;98.33;52155.31;2072219;28;33908;-71
2023/04/08 03:52:16;;;;;;;24.23;15.10;;;;;;;-146.25;98.50;52153.28;2072783;28;35775;-70
2023/04/08 03:53:18;;;;;;;20.63;14.55;;;;;;;-146.25;98.42;52104.63;2073183;28;20038;-70
2023/04/08 03:54:19;;;;;;;20.90;14.93;;;;;;;-146.25;98.23;52226.25;2072785;28;35112;-70
2023/04/08 03:55:21;;;;;;;21.45;14.20;;;;;;;-146.25;97.79;52169.50;2072557;28;34635;-70
2023/04/08 03:56:24;;;;;;;21.85;15.48;;;;;;;-146.25;98.42;52141.13;2073512;28;20034;-70
2023/04/08 03:57:26;;;;;;;22.52;15.27;;;;;;;-146.25;98.50;52149.22;2072160;28;36872;-71
2023/04/08 03:58:28;;;;;;;22.45;14.98;;;;;;;-146.25;97.84;52177.59;2072764;28;36190;-70
2023/04/08 03:59:29;;;;;;;22.17;15.18;;;;;;;-146.25;97.75;52161.38;2072154;28;34056;-71
2023/04/08 04:00:31;;;;;;;23.42;15.23;;;;;;;-146.25;98.72;52173.56;2072797;28;35249;-70
2023/04/08 04:01:33;;;;;;;23.88;16.00;;;;;;;-146.25;98.34;52163.41;2072251;28;31303;-71
2023/04/08 04:02:35;;;;;;;22.20;15.43;;;;;;;-146.25;98.67;52159.34;2072563;28;34163;-70
2023/04/08 04:03:36;;;;;;;21.98;15.20;;;;;;;-146.25;98.47;52173.56;2072489;28;35653;-70
2023/04/08 04:04:40;;;;;;;23.63;15.57;;;;;;;-146.25;98.95;52167.47;2073779;28;20050;-70
2023/04/08 04:05:42;;;;;;;26.40;16.33;;;;;;;-146.25;99.36;52139.09;2072184;28;34407;-71
2023/04/08 04:06:43;;;;;;;24.55;16.55;;;;;;;-146.25;98.91;52159.34;2073389;28;20042;-70
2023/04/08 04:07:45;;;;;;;25.48;16.63;;;;;;;-146.25;99.80;52169.50;2072104;28;35904;-70
2023/04/08 04:08:49;;;;;;;23.45;15.63;;;;;;;-146.25;99.26;52175.56;2072677;28;34530;-70
2023/04/08 04:09:55;;;;;;;22.77;15.23;;;;;;;-146.25;99.17;52141.13;2072264;28;30984;-70
2023/04/08 04:10:58;;;;;;;25.92;16.17;;;;;;;-146.25;99.54;52149.22;2073091;28;30997;-70
2023/04/08 04:12:00;;;;;;;24.25;16.20;;;;;;;-146.25;99.49;52143.13;2063244;28;35615;-70
2023/04/08 04:13:02;;;;;;;24.02;15.73;;;;;;;-146.25;99.72;52161.38;2064769;28;20027;-70
2023/04/08 04:14:03;;;;;;;25.63;16.23;;;;;;;-146.25;100.00;52130.97;2063274;28;36976;-70
2023/04/08 04:15:06;;;;;;;27.65;17.13;;;;;;;-146.25;99.36;52133.00;2064174;28;31748;-70
2023/04/08 04:16:08;;;;;;;23.17;15.63;;;;;;;-146.25;100.00;52128.94;2072276;28;28418;-70
2023/04/08 04:17:10;;;;;;;25.58;16.40;;;;;;;-146.25;100.00;52173.56;2072007;28;36720;-70
2023/04/08 04:18:11;;;;;;;25.60;16.45;;;;;;;-146.25;99.72;52124.91;2073155;28;20043;-70
2023/04/08 04:19:13;;;;;;;23.98;15.93;;;;;;;-146.25;100.00;52133.00;2072452;28;37497;-70
2023/04/08 04:20:18;;;;;;;25.83;16.13;;;;;;;-146.25;100.00;52191.81;2072132;28;34040;-71
2023/04/08 04:21:19;;;;;;;25.90;16.58;;;;;;;-146.25;100.00;52147.19;2072490;28;34355;-70
2023/04/08 04:22:23;;;;;;;25.30;16.38;;;;;;;-146.25;100.00;52177.59;2072141;28;39347;-70
2023/04/08 04:23:25;;;;;;;26.60;16.92;;;;;;;-146.25;100.00;52149.22;2071987;28;20077;-70
2023/04/08 04:24:29;;;;;;;28.42;17.33;;;;;;;-146.25;100.00;52137.06;2072197;28;36651;-70
2023/04/08 04:25:31;;;;;;;26.83;16.80;;;;;;;-146.25;100.00;52147.19;2072644;28;33504;-70
2023/04/08 04:26:32;;;;;;;24.27;16.08;;;;;;;-146.25;100.00;52189.78;2063995;28;33647;-70
2023/04/08 04:27:35;;;;;;;28.42;17.45;;;;;;;-146.25;100.00;52189.78;2064190;28;32657;-70
2023/04/08 04:28:37;;;;;;;24.85;16.65;;;;;;;-146.25;100.00;52189.78;2072356;28;33635;-69
2023/04/08 04:29:39;;;;;;;24.42;15.65;;;;;;;-146.25;100.00;52173.56;2072509;28;34476;-70
2023/04/08 04:30:41;;;;;;;25.42;15.85;;;;;;;-146.25;100.00;52143.13;2072451;28;37173;-70
2023/04/08 04:31:43;;;;;;;27.13;17.10;;;;;;;-146.25;100.00;52155.31;2072077;28;33707;-70
2023/04/08 04:32:47;;;;;;;26.92;16.80;;;;;;;-146.25;100.00;52149.22;2071936;28;29883;-70
2023/04/08 04:33:50;;;;;;;25.45;16.20;;;;;;;-146.25;100.00;52145.16;2073333;28;20085;-70
2023/04/08 04:34:54;;;;;;;25.13;15.85;;;;;;;-146.25;100.00;52161.38;2072208;28;34940;-70
2023/04/08 04:35:59;;;;;;;25.80;16.70;;;;;;;-146.25;100.00;52151.25;2072660;28;33269;-71
2023/04/08 04:37:01;;;;;;;23.45;15.48;;;;;;;-146.25;100.00;52143.13;2072017;28;36522;-70
2023/04/08 04:38:04;;;;;;;22.20;15.38;;;;;;;-146.25;100.00;52169.50;2072445;28;37642;-70
2023/04/08 04:39:06;;;;;;;24.23;16.00;;;;;;;-146.25;100.00;52124.91;2072343;28;33853;-71
2023/04/08 04:40:08;;;;;;;24.33;16.17;;;;;;;-146.25;100.00;52163.41;2073108;28;20045;-71
2023/04/08 04:41:10;;;;;;;25.33;16.00;;;;;;;-146.25;100.00;52126.91;2072180;28;33405;-70
2023/04/08 04:42:14;;;;;;;24.13;16.35;;;;;;;-146.25;100.00;52133.00;2072464;28;37154;-70
2023/04/08 04:43:18;;;;;;;25.40;16.33;;;;;;;-146.25;100.00;52167.47;2072404;28;32288;-70
2023/04/08 04:44:20;;;;;;;26.23;16.83;;;;;;;-146.25;100.00;52171.53;2072144;28;34588;-70
2023/04/08 04:45:21;;;;;;;24.77;15.73;;;;;;;-146.25;100.00;52165.44;2072097;28;35121;-70
2023/04/08 04:46:25;;;;;;;27.83;16.80;;;;;;;-146.25;100.00;52159.34;2072279;28;34705;-71
2023/04/08 04:47:31;;;;;;;28.00;15.95;;;;;;;-146.25;100.00;52185.72;2071867;28;37527;-70